Time;durP1;ratioP1;P1;durP2;ratioP2;P2;SDS_P1;SDS_P2;PMS_P1;PMS_P2;Temp;Humidity;BMP_temperature;BMP_pressure;BME280_temperature;BME280_humidity;BME280_pressure;Samples;Min_cycle;Max_cycle;Signal;HPM_P1;HPM_P2
2024/01/23 00:00:30;;;;;;;11.82;5.10;;;6.70;1.00;;;;;;5068981;28;20237;-75
2024/01/23 00:02:58;;;;;;;6.95;4.40;;;6.70;1.00;;;;;;5069650;28;20237;-75
2024/01/23 00:05:25;;;;;;;13.60;4.07;;;6.70;1.00;;;;;;5069970;28;20327;-77
2024/01/23 00:07:52;;;;;;;10.02;5.00;;;6.80;1.00;;;;;;5062785;28;20985;-77
2024/01/23 00:10:21;;;;;;;9.30;5.00;;;6.90;1.00;;;;;;5070299;28;20235;-75
2024/01/23 00:12:50;;;;;;;8.17;3.33;;;6.90;1.00;;;;;;5069456;28;20529;-75
2024/01/23 00:15:18;;;;;;;5.13;2.83;;;7.00;1.00;;;;;;5069495;27;21012;-75
2024/01/23 00:17:45;;;;;;;6.50;3.10;;;7.00;1.00;;;;;;5066711;28;20548;-75
2024/01/23 00:20:12;;;;;;;6.75;3.00;;;7.00;1.00;;;;;;5072410;27;20247;-75
2024/01/23 00:22:39;;;;;;;4.57;2.80;;;7.10;1.00;;;;;;5072788;28;20696;-75
2024/01/23 00:25:07;;;;;;;7.40;2.80;;;7.10;1.00;;;;;;5068396;28;20248;-75
2024/01/23 00:27:34;;;;;;;5.57;3.30;;;7.10;1.00;;;;;;5066178;28;21035;-75
2024/01/23 00:30:04;;;;;;;5.95;2.50;;;7.10;1.00;;;;;;5069034;27;21172;-75
2024/01/23 00:32:31;;;;;;;8.50;2.97;;;7.10;1.00;;;;;;5069597;28;20248;-75
2024/01/23 00:34:58;;;;;;;5.32;2.55;;;7.00;1.00;;;;;;5068060;27;20993;-77
2024/01/23 00:37:25;;;;;;;8.77;3.13;;;7.10;1.00;;;;;;5070627;28;20238;-75
2024/01/23 00:39:54;;;;;;;5.23;2.97;;;7.10;1.00;;;;;;5071468;28;20939;-75
2024/01/23 00:42:21;;;;;;;4.40;2.70;;;7.10;1.00;;;;;;5070273;28;20466;-75
2024/01/23 00:44:48;;;;;;;4.83;2.70;;;7.10;1.00;;;;;;5073246;28;20475;-74
2024/01/23 00:47:17;;;;;;;11.00;3.42;;;7.20;1.00;;;;;;5071697;27;20562;-76
2024/01/23 00:49:44;;;;;;;9.88;2.70;;;7.20;1.00;;;;;;5070145;27;20254;-75
2024/01/23 00:52:11;;;;;;;5.32;2.47;;;7.10;1.00;;;;;;5069508;28;20317;-75
2024/01/23 00:54:38;;;;;;;5.80;2.60;;;7.10;1.00;;;;;;5068521;28;20233;-76
2024/01/23 00:57:06;;;;;;;3.65;2.20;;;7.10;1.00;;;;;;5067427;27;20452;-75
2024/01/23 00:59:33;;;;;;;5.07;2.35;;;7.10;1.00;;;;;;5072439;28;20773;-75
2024/01/23 01:02:00;;;;;;;5.25;3.00;;;7.10;1.00;;;;;;5071184;27;20256;-78
2024/01/23 01:04:28;;;;;;;9.15;2.60;;;7.10;1.00;;;;;;5066668;28;21000;-75
2024/01/23 01:06:55;;;;;;;7.78;2.63;;;7.10;1.00;;;;;;5070145;27;20243;-72
2024/01/23 01:09:22;;;;;;;5.53;2.45;;;7.00;1.00;;;;;;5070163;27;21076;-74
2024/01/23 01:11:49;;;;;;;6.63;2.40;;;6.90;1.00;;;;;;5073576;27;20345;-71
2024/01/23 01:14:16;;;;;;;7.18;2.63;;;6.90;1.00;;;;;;5068186;28;20587;-72
2024/01/23 01:16:44;;;;;;;5.47;2.47;;;6.90;1.00;;;;;;5069444;27;20246;-71
2024/01/23 01:19:13;;;;;;;4.03;2.58;;;6.80;1.00;;;;;;5068496;28;20918;-74
2024/01/23 01:21:42;;;;;;;6.35;2.58;;;6.60;1.00;;;;;;5070648;28;20273;-73
2024/01/23 01:24:09;;;;;;;4.13;1.55;;;6.50;1.00;;;;;;5070116;27;20245;-75
2024/01/23 01:26:39;;;;;;;3.22;1.85;;;6.20;1.00;;;;;;5072226;28;20290;-73
2024/01/23 01:29:06;;;;;;;5.40;2.47;;;6.10;1.00;;;;;;5069382;28;20997;-72
2024/01/23 01:31:33;;;;;;;3.03;2.00;;;6.00;1.00;;;;;;5066645;28;20233;-72
2024/01/23 01:34:00;;;;;;;5.72;1.95;;;6.00;1.00;;;;;;5065717;28;21379;-72
2024/01/23 01:36:26;;;;;;;4.15;1.85;;;5.90;1.00;;;;;;5071957;28;20288;-71
2024/01/23 01:38:56;;;;;;;6.10;2.35;;;5.90;1.00;;;;;;5071220;28;20249;-72
2024/01/23 01:41:22;;;;;;;3.03;2.28;;;5.90;1.00;;;;;;5067825;28;20234;-72
2024/01/23 01:43:49;;;;;;;5.78;2.40;;;5.90;1.00;;;;;;5071051;28;20264;-73
2024/01/23 01:46:21;;;;;;;3.78;2.28;;;5.90;1.00;;;;;;5067794;28;20243;-73
2024/01/23 01:48:48;;;;;;;3.55;2.38;;;5.90;1.00;;;;;;5051816;28;21127;-71
2024/01/23 01:51:16;;;;;;;5.20;2.50;;;5.90;1.00;;;;;;5066440;28;20239;-72
2024/01/23 01:53:45;;;;;;;4.60;1.80;;;5.90;1.00;;;;;;5067528;28;20982;-72
2024/01/23 01:56:14;;;;;;;4.93;2.60;;;5.80;1.00;;;;;;5069917;27;20251;-73
2024/01/23 01:58:43;;;;;;;4.22;2.25;;;5.80;1.00;;;;;;5070476;27;20720;-72
2024/01/23 02:01:11;;;;;;;9.63;2.85;;;5.80;1.00;;;;;;5066544;27;20298;-73
2024/01/23 02:03:38;;;;;;;3.25;2.00;;;5.70;1.00;;;;;;5070098;27;20250;-73
2024/01/23 02:06:07;;;;;;;4.80;2.00;;;5.70;1.00;;;;;;5069199;28;20377;-72
2024/01/23 02:08:35;;;;;;;9.48;1.95;;;5.70;1.00;;;;;;5060549;28;20246;-74
2024/01/23 02:11:03;;;;;;;4.00;1.60;;;5.70;1.00;;;;;;5069378;27;20242;-74
2024/01/23 02:13:32;;;;;;;6.40;2.60;;;5.80;1.00;;;;;;5073723;27;20299;-72
2024/01/23 02:15:58;;;;;;;4.97;2.38;;;5.80;1.00;;;;;;5074948;27;20288;-71
2024/01/23 02:18:27;;;;;;;5.72;2.08;;;5.80;1.00;;;;;;5070056;28;20348;-73
2024/01/23 02:20:54;;;;;;;4.57;1.90;;;5.80;1.00;;;;;;5071527;28;21012;-74
2024/01/23 02:23:21;;;;;;;7.90;2.47;;;5.80;1.00;;;;;;5067232;28;20761;-72
2024/01/23 02:25:49;;;;;;;3.75;2.35;;;5.80;1.00;;;;;;5065707;28;20281;-72
2024/01/23 02:28:16;;;;;;;3.22;2.20;;;5.70;1.00;;;;;;5069781;28;20225;-72
2024/01/23 02:30:43;;;;;;;6.45;2.45;;;5.70;1.00;;;;;;5069000;28;20245;-72
2024/01/23 02:33:10;;;;;;;5.32;2.45;;;5.60;1.00;;;;;;5070203;27;20234;-75
2024/01/23 02:35:37;;;;;;;5.88;2.83;;;5.60;1.00;;;;;;5067063;28;20257;-73
2024/01/23 02:38:04;;;;;;;4.32;2.50;;;5.60;1.00;;;;;;5066348;28;20712;-73
2024/01/23 02:40:31;;;;;;;3.20;2.40;;;5.60;1.00;;;;;;5059581;28;20244;-72
2024/01/23 02:43:00;;;;;;;4.65;2.60;;;5.60;1.00;;;;;;5071223;27;20239;-77
2024/01/23 02:45:27;;;;;;;8.07;3.20;;;5.60;1.00;;;;;;5067138;28;20289;-72
2024/01/23 02:47:54;;;;;;;4.30;2.58;;;5.60;1.00;;;;;;5067624;27;20311;-74
2024/01/23 02:50:22;;;;;;;5.05;2.35;;;5.50;1.00;;;;;;5069674;28;20240;-71
2024/01/23 02:52:52;;;;;;;5.03;2.50;;;5.50;1.00;;;;;;5065792;28;20249;-72
2024/01/23 02:55:20;;;;;;;5.20;2.70;;;5.50;1.00;;;;;;5068559;28;21073;-74
2024/01/23 02:57:45;;;;;;;5.30;3.00;;;5.50;1.00;;;;;;5072281;28;20250;-76
2024/01/23 03:00:14;;;;;;;5.37;2.83;;;5.60;1.00;;;;;;5068607;27;20236;-71
2024/01/23 03:02:42;;;;;;;6.43;2.60;;;5.50;1.00;;;;;;5069081;27;21498;-72
2024/01/23 03:05:09;;;;;;;5.60;2.50;;;5.50;1.00;;;;;;5067081;28;22463;-73
2024/01/23 03:07:37;;;;;;;7.32;2.72;;;5.50;1.00;;;;;;5067604;27;20686;-73
2024/01/23 03:10:12;;;;;;;6.45;2.58;;;5.50;1.00;;;;;;5067065;28;20998;-71
2024/01/23 03:12:40;;;;;;;4.22;2.15;;;5.50;1.00;;;;;;5069668;28;20236;-71
2024/01/23 03:15:08;;;;;;;3.65;2.10;;;5.50;1.00;;;;;;5065330;28;20321;-72
2024/01/23 03:17:37;;;;;;;5.88;2.20;;;5.60;1.00;;;;;;5068039;28;20246;-71
2024/01/23 03:20:05;;;;;;;4.50;2.28;;;5.60;1.00;;;;;;5056431;28;20752;-72
2024/01/23 03:22:32;;;;;;;4.68;2.30;;;5.70;1.00;;;;;;5055954;28;20242;-74
2024/01/23 03:25:00;;;;;;;8.00;2.30;;;5.70;1.00;;;;;;5065277;28;20247;-72
2024/01/23 03:27:27;;;;;;;4.05;2.22;;;5.70;1.00;;;;;;5072448;28;20718;-75
2024/01/23 03:29:55;;;;;;;4.22;2.00;;;5.80;1.00;;;;;;5070267;28;20363;-77
2024/01/23 03:32:22;;;;;;;6.20;2.47;;;5.80;1.00;;;;;;5073855;28;20794;-76
2024/01/23 03:34:51;;;;;;;8.00;2.38;;;5.80;1.00;;;;;;5072961;28;20273;-76
2024/01/23 03:37:18;;;;;;;6.35;2.03;;;5.70;1.00;;;;;;5071873;27;20263;-76
2024/01/23 03:39:45;;;;;;;6.55;2.35;;;5.70;1.00;;;;;;5077218;27;20701;-77
2024/01/23 03:42:12;;;;;;;5.05;2.60;;;5.70;1.00;;;;;;5075015;27;20245;-76
2024/01/23 03:44:38;;;;;;;5.40;2.20;;;5.70;1.00;;;;;;5074738;28;20756;-75
2024/01/23 03:47:08;;;;;;;7.95;2.53;;;5.70;1.00;;;;;;5074975;28;20318;-76
2024/01/23 03:49:35;;;;;;;7.00;3.42;;;5.70;1.00;;;;;;5076067;28;20237;-75
2024/01/23 03:52:06;;;;;;;5.53;3.28;;;5.80;1.00;;;;;;5074540;27;20248;-76
2024/01/23 03:54:33;;;;;;;5.32;2.95;;;5.80;1.00;;;;;;5077882;28;20246;-77
2024/01/23 03:57:00;;;;;;;5.30;2.70;;;5.80;1.00;;;;;;5073915;28;20456;-76
2024/01/23 03:59:27;;;;;;;3.40;3.00;;;5.80;1.00;;;;;;5074204;28;20376;-75
2024/01/23 04:01:54;;;;;;;3.60;1.65;;;5.80;1.00;;;;;;5076267;27;20680;-76
2024/01/23 04:04:22;;;;;;;5.20;2.15;;;5.70;1.00;;;;;;5074525;28;20325;-77
2024/01/23 04:06:49;;;;;;;6.00;2.00;;;5.70;1.00;;;;;;5073824;27;20254;-76
2024/01/23 04:09:18;;;;;;;3.42;1.90;;;5.70;1.00;;;;;;5061013;27;21035;-76
2024/01/23 04:11:46;;;;;;;3.22;2.00;;;5.70;1.00;;;;;;5064559;28;20742;-76
2024/01/23 04:14:13;;;;;;;3.08;1.95;;;5.70;1.00;;;;;;5069154;28;20278;-76
2024/01/23 04:16:40;;;;;;;8.43;2.23;;;5.70;1.00;;;;;;5071928;27;20242;-76
2024/01/23 04:19:07;;;;;;;6.32;2.10;;;5.70;1.00;;;;;;5071247;28;20524;-75
2024/01/23 04:21:34;;;;;;;4.80;2.53;;;5.70;1.00;;;;;;5072316;28;20754;-76
2024/01/23 04:24:02;;;;;;;6.72;2.20;;;5.70;1.00;;;;;;5071692;27;20271;-75
2024/01/23 04:26:30;;;;;;;4.30;2.17;;;5.60;1.00;;;;;;5070408;28;20238;-75
2024/01/23 04:28:57;;;;;;;4.25;2.15;;;5.60;1.00;;;;;;5071646;28;20548;-76
2024/01/23 04:31:25;;;;;;;5.05;2.30;;;5.60;1.00;;;;;;5072339;27;20241;-76
2024/01/23 04:33:53;;;;;;;4.90;2.28;;;5.60;1.00;;;;;;5070434;27;20724;-76
2024/01/23 04:36:20;;;;;;;3.92;1.70;;;5.60;1.00;;;;;;5071073;28;21121;-76
2024/01/23 04:38:46;;;;;;;7.38;1.92;;;5.60;1.00;;;;;;5069497;28;20241;-74
2024/01/23 04:41:14;;;;;;;6.20;1.92;;;5.70;1.00;;;;;;5072205;28;20273;-75
2024/01/23 04:43:42;;;;;;;5.90;2.38;;;5.80;1.00;;;;;;5068824;28;20307;-76
2024/01/23 04:46:11;;;;;;;5.88;1.98;;;5.90;1.00;;;;;;5069686;28;20243;-76
2024/01/23 04:48:39;;;;;;;8.55;3.00;;;5.90;1.00;;;;;;5064893;28;20261;-75
2024/01/23 04:51:06;;;;;;;7.40;3.60;;;5.80;1.00;;;;;;5065086;27;20611;-77
2024/01/23 04:53:33;;;;;;;4.50;2.20;;;5.70;1.00;;;;;;5070829;27;20244;-76
2024/01/23 04:56:00;;;;;;;5.65;3.22;;;5.70;1.00;;;;;;5071147;27;20238;-77
2024/01/23 04:58:27;;;;;;;4.05;2.30;;;5.60;1.00;;;;;;5072619;27;20241;-76
2024/01/23 05:00:56;;;;;;;4.32;2.10;;;5.60;1.00;;;;;;5066620;27;20243;-76
2024/01/23 05:03:22;;;;;;;6.95;2.60;;;5.60;1.00;;;;;;5066119;27;20235;-75
2024/01/23 05:05:50;;;;;;;8.85;2.13;;;5.60;1.00;;;;;;5065119;27;20338;-78
2024/01/23 05:08:17;;;;;;;4.53;2.00;;;5.60;1.00;;;;;;5069393;27;20241;-78
2024/01/23 05:10:44;;;;;;;2.83;2.00;;;5.60;1.00;;;;;;5069181;28;20784;-76
2024/01/23 05:13:11;;;;;;;6.32;2.80;;;5.60;1.00;;;;;;5050280;28;20234;-76
2024/01/23 05:15:38;;;;;;;8.32;2.45;;;5.60;1.00;;;;;;5064432;28;20340;-77
2024/01/23 05:18:07;;;;;;;6.90;2.90;;;5.70;1.00;;;;;;5068193;28;20291;-76
2024/01/23 05:20:35;;;;;;;5.07;2.50;;;5.70;1.00;;;;;;5074995;28;20242;-75
2024/01/23 05:23:02;;;;;;;5.80;3.00;;;5.70;1.00;;;;;;5063545;28;20303;-75
2024/01/23 05:25:29;;;;;;;2.97;1.80;;;5.70;1.00;;;;;;5070921;27;20244;-76
2024/01/23 05:27:56;;;;;;;4.25;1.75;;;5.70;1.00;;;;;;5068418;27;20279;-79
2024/01/23 05:30:23;;;;;;;9.50;2.20;;;5.70;1.00;;;;;;5066936;27;20242;-75
2024/01/23 05:32:51;;;;;;;5.00;2.55;;;5.60;1.00;;;;;;5072389;27;20305;-76
2024/01/23 05:35:19;;;;;;;7.47;3.60;;;5.60;1.00;;;;;;5069554;27;20235;-76
2024/01/23 05:37:46;;;;;;;3.83;1.92;;;5.60;1.00;;;;;;5068624;27;20353;-77
2024/01/23 05:40:14;;;;;;;4.45;1.98;;;5.50;1.00;;;;;;5061017;27;20257;-76
2024/01/23 05:42:41;;;;;;;5.15;2.10;;;5.40;1.00;;;;;;5065054;28;20234;-77
2024/01/23 05:45:09;;;;;;;7.50;3.50;;;5.30;1.00;;;;;;5064489;27;20291;-76
2024/01/23 05:47:36;;;;;;;6.28;2.53;;;5.30;1.00;;;;;;5069809;28;20293;-73
2024/01/23 05:50:04;;;;;;;5.43;2.35;;;5.30;1.00;;;;;;5069034;27;20281;-73
2024/01/23 05:52:32;;;;;;;4.10;2.40;;;5.20;1.00;;;;;;5070638;27;20582;-73
2024/01/23 05:55:00;;;;;;;8.10;3.10;;;5.30;1.00;;;;;;5070454;27;20348;-74
2024/01/23 05:57:28;;;;;;;2.45;2.00;;;5.40;1.00;;;;;;5066197;27;20238;-76
2024/01/23 05:59:56;;;;;;;7.10;2.50;;;5.40;1.00;;;;;;5070028;28;20239;-72
2024/01/23 06:02:23;;;;;;;7.60;2.50;;;5.40;1.00;;;;;;5064806;28;20327;-72
2024/01/23 06:04:50;;;;;;;5.68;3.25;;;5.30;1.00;;;;;;5071940;27;20244;-75
2024/01/23 06:07:17;;;;;;;4.80;2.00;;;5.30;1.00;;;;;;5067905;27;20237;-74
2024/01/23 06:09:46;;;;;;;5.55;2.40;;;5.40;1.00;;;;;;5066765;28;20786;-73
2024/01/23 06:12:13;;;;;;;4.00;1.50;;;5.30;1.00;;;;;;5067148;27;20247;-72
2024/01/23 06:14:40;;;;;;;11.10;2.92;;;5.30;1.00;;;;;;5068714;28;20238;-73
2024/01/23 06:17:07;;;;;;;4.45;1.65;;;5.30;1.00;;;;;;5067988;27;20675;-72
2024/01/23 06:19:35;;;;;;;9.43;2.40;;;5.30;1.00;;;;;;5068609;28;20324;-78
2024/01/23 06:22:02;;;;;;;6.10;2.50;;;5.40;1.00;;;;;;5068707;27;20337;-72
2024/01/23 06:24:29;;;;;;;3.95;2.40;;;5.50;1.00;;;;;;5067206;27;20237;-72
2024/01/23 06:26:57;;;;;;;8.80;2.25;;;5.50;1.00;;;;;;5065809;28;20258;-73
2024/01/23 06:29:25;;;;;;;3.17;1.77;;;5.60;1.00;;;;;;5066024;28;20253;-72
2024/01/23 06:31:52;;;;;;;5.55;2.80;;;5.60;1.00;;;;;;5066508;27;20238;-74
2024/01/23 06:34:21;;;;;;;5.25;2.28;;;5.70;1.00;;;;;;5055087;28;20536;-73
2024/01/23 06:36:51;;;;;;;10.45;2.85;;;5.70;1.00;;;;;;5063282;28;20243;-72
2024/01/23 06:39:18;;;;;;;5.22;2.58;;;5.70;1.00;;;;;;5066898;28;20751;-72
2024/01/23 06:41:45;;;;;;;9.05;3.30;;;5.80;1.00;;;;;;5069793;28;20230;-74
2024/01/23 06:44:13;;;;;;;6.45;2.55;;;5.90;1.00;;;;;;5066509;27;20243;-72
2024/01/23 06:46:40;;;;;;;9.50;3.00;;;5.90;1.00;;;;;;5069296;28;20351;-74
2024/01/23 06:49:10;;;;;;;5.90;2.38;;;6.00;1.00;;;;;;5065769;27;20282;-74
2024/01/23 06:51:37;;;;;;;6.75;2.22;;;6.00;1.00;;;;;;5063913;27;20315;-71
2024/01/23 06:54:07;;;;;;;7.25;2.60;;;6.00;1.00;;;;;;5070101;28;20248;-73
2024/01/23 06:56:35;;;;;;;12.15;2.88;;;6.00;1.00;;;;;;5067519;28;20323;-75
2024/01/23 06:59:09;;;;;;;8.43;2.80;;;6.00;1.00;;;;;;5067001;28;20243;-75
2024/01/23 07:01:37;;;;;;;8.18;2.83;;;6.10;1.00;;;;;;5072869;28;20369;-74
2024/01/23 07:04:05;;;;;;;6.10;2.70;;;6.10;1.00;;;;;;5069739;28;20275;-74
2024/01/23 07:06:32;;;;;;;9.02;3.25;;;6.10;1.00;;;;;;5063280;27;20510;-75
2024/01/23 07:08:59;;;;;;;6.23;3.17;;;6.20;1.00;;;;;;5072895;28;20235;-76
2024/01/23 07:11:27;;;;;;;10.90;4.05;;;6.20;1.00;;;;;;5073026;28;21196;-75
2024/01/23 07:13:54;;;;;;;8.10;2.90;;;6.20;1.00;;;;;;5064501;27;21207;-74
2024/01/23 07:16:23;;;;;;;5.47;2.87;;;6.20;1.00;;;;;;5053126;28;20544;-74
2024/01/23 07:18:51;;;;;;;6.00;2.63;;;6.30;1.00;;;;;;5060315;27;20456;-75
2024/01/23 07:21:18;;;;;;;8.25;3.00;;;6.20;1.00;;;;;;5067987;28;20701;-75
2024/01/23 07:23:45;;;;;;;6.00;3.20;;;6.30;1.00;;;;;;5070205;28;21180;-75
2024/01/23 07:26:12;;;;;;;12.53;3.33;;;6.40;1.00;;;;;;5070656;27;20423;-76
2024/01/23 07:28:39;;;;;;;7.60;3.53;;;6.40;1.00;;;;;;5072102;28;20470;-75
2024/01/23 07:31:06;;;;;;;10.70;2.97;;;6.40;1.00;;;;;;5069934;27;20953;-75
2024/01/23 07:33:34;;;;;;;7.00;2.88;;;6.50;1.00;;;;;;5056812;28;20298;-75
2024/01/23 07:36:03;;;;;;;10.77;3.88;;;6.50;1.00;;;;;;5080718;27;20318;-75
2024/01/23 07:38:30;;;;;;;5.90;3.15;;;6.50;1.00;;;;;;5072401;28;20296;-75
2024/01/23 07:40:58;;;;;;;8.32;3.05;;;6.60;1.00;;;;;;5070619;28;20266;-76
2024/01/23 07:43:25;;;;;;;7.88;3.20;;;6.60;1.00;;;;;;5071852;28;20246;-75
2024/01/23 07:45:53;;;;;;;12.23;3.03;;;6.70;1.00;;;;;;5073560;27;20238;-75
2024/01/23 07:48:20;;;;;;;9.55;4.68;;;6.70;1.00;;;;;;5072980;27;20468;-76
2024/01/23 07:50:47;;;;;;;7.60;3.17;;;6.80;1.00;;;;;;5073092;28;20242;-75
2024/01/23 07:53:15;;;;;;;10.70;4.22;;;6.80;1.00;;;;;;5075733;27;20235;-76
2024/01/23 07:55:43;;;;;;;5.72;2.80;;;6.80;1.00;;;;;;5071499;27;20384;-75
2024/01/23 07:58:12;;;;;;;12.37;4.07;;;6.90;1.00;;;;;;5070433;28;20393;-76
2024/01/23 08:00:43;;;;;;;19.33;4.18;;;6.90;1.00;;;;;;5070523;28;20459;-75
2024/01/23 08:03:10;;;;;;;9.87;3.90;;;6.90;1.00;;;;;;5070779;28;20334;-75
2024/01/23 08:05:37;;;;;;;8.33;3.63;;;7.00;1.00;;;;;;5068835;28;20455;-75
2024/01/23 08:08:06;;;;;;;8.90;3.10;;;7.00;1.00;;;;;;5074109;28;20478;-78
2024/01/23 08:10:35;;;;;;;12.20;3.58;;;6.90;1.00;;;;;;5079515;28;20449;-77
2024/01/23 08:13:03;;;;;;;5.47;2.50;;;7.00;1.00;;;;;;5066862;27;20431;-79
2024/01/23 08:15:30;;;;;;;10.83;3.30;;;7.00;1.00;;;;;;5080254;28;20310;-77
2024/01/23 08:17:56;;;;;;;13.48;4.30;;;6.90;1.00;;;;;;5078302;27;20662;-76
2024/01/23 08:20:23;;;;;;;11.02;3.80;;;6.90;1.00;;;;;;5081748;28;20261;-79
2024/01/23 08:22:51;;;;;;;10.02;3.30;;;6.90;1.00;;;;;;5071399;28;20354;-80
2024/01/23 08:25:18;;;;;;;9.35;3.70;;;7.00;1.00;;;;;;5080662;28;20242;-79
2024/01/23 08:27:47;;;;;;;7.97;2.88;;;7.10;1.00;;;;;;5083422;28;20239;-77
2024/01/23 08:30:16;;;;;;;9.35;4.43;;;7.10;1.00;;;;;;5080461;28;20334;-74
2024/01/23 08:32:44;;;;;;;11.80;4.13;;;7.20;1.00;;;;;;5083442;28;20233;-77
2024/01/23 08:35:11;;;;;;;9.60;3.70;;;7.30;1.00;;;;;;5079850;28;20551;-78
2024/01/23 08:37:38;;;;;;;7.32;3.63;;;7.20;1.00;;;;;;5079678;28;20446;-80
2024/01/23 08:40:07;;;;;;;11.70;4.15;;;7.20;1.00;;;;;;5080306;27;20305;-77
2024/01/23 08:42:34;;;;;;;10.10;3.87;;;7.20;1.00;;;;;;5078646;28;20236;-78
2024/01/23 08:45:04;;;;;;;11.75;3.42;;;7.30;1.00;;;;;;5074686;27;20595;-80
2024/01/23 08:47:32;;;;;;;8.07;2.88;;;7.30;1.00;;;;;;5075281;28;20243;-78
2024/01/23 08:49:59;;;;;;;5.28;3.55;;;7.30;1.00;;;;;;5074131;28;20266;-78
2024/01/23 08:52:26;;;;;;;11.43;3.60;;;7.30;1.00;;;;;;5075729;27;20506;-78
2024/01/23 08:54:53;;;;;;;12.10;3.07;;;7.30;1.00;;;;;;5076272;28;20502;-79
2024/01/23 08:57:24;;;;;;;13.67;3.40;;;7.30;1.00;;;;;;5064731;28;20545;-80
2024/01/23 08:59:52;;;;;;;4.97;3.35;;;7.30;1.00;;;;;;5075981;27;20542;-81
2024/01/23 09:02:20;;;;;;;10.70;3.60;;;7.30;1.00;;;;;;5074418;28;20806;-81
2024/01/23 09:04:47;;;;;;;8.00;3.43;;;7.40;1.00;;;;;;5060898;28;20483;-79
2024/01/23 09:07:15;;;;;;;7.50;3.47;;;7.50;1.00;;;;;;5073321;28;20467;-80
2024/01/23 09:09:47;;;;;;;10.00;3.50;;;7.60;1.00;;;;;;5073094;28;20424;-80
2024/01/23 09:12:16;;;;;;;7.90;3.20;;;7.60;1.00;;;;;;5074618;28;20458;-79
2024/01/23 09:14:43;;;;;;;6.87;3.60;;;7.70;1.00;;;;;;5072626;28;21467;-79
2024/01/23 09:17:10;;;;;;;8.60;3.27;;;7.70;1.00;;;;;;5067472;28;20531;-74
2024/01/23 09:19:39;;;;;;;5.83;3.03;;;7.80;1.00;;;;;;5067539;28;20554;-75
2024/01/23 09:22:06;;;;;;;7.07;2.77;;;7.80;1.00;;;;;;5065443;28;20965;-75
2024/01/23 09:24:33;;;;;;;6.33;2.97;;;7.80;1.00;;;;;;5069767;28;20490;-75
2024/01/23 09:27:01;;;;;;;6.60;3.20;;;7.90;1.00;;;;;;5066236;28;20832;-77
2024/01/23 09:29:28;;;;;;;8.88;2.95;;;7.80;1.00;;;;;;5069478;27;20561;-74
2024/01/23 09:31:55;;;;;;;6.60;3.00;;;7.80;1.00;;;;;;5068202;27;20241;-75
2024/01/23 09:34:23;;;;;;;13.17;3.77;;;7.80;1.00;;;;;;5066611;28;20552;-74
2024/01/23 09:36:54;;;;;;;9.00;3.57;;;7.70;1.00;;;;;;5070244;27;20541;-74
2024/01/23 09:39:21;;;;;;;9.33;3.83;;;7.70;1.00;;;;;;5064234;28;20661;-75
2024/01/23 09:41:54;;;;;;;10.17;3.70;;;7.70;1.00;;;;;;5067825;28;20492;-74
2024/01/23 09:44:22;;;;;;;8.00;4.10;;;7.80;1.00;;;;;;5069351;28;20474;-76
2024/01/23 09:46:51;;;;;;;12.60;3.77;;;7.80;1.00;;;;;;5067948;28;20506;-73
2024/01/23 09:49:18;;;;;;;10.63;3.92;;;7.80;1.00;;;;;;5068188;27;21349;-74
2024/01/23 09:51:47;;;;;;;9.87;3.20;;;7.90;1.00;;;;;;5067513;28;20394;-77
2024/01/23 09:54:17;;;;;;;7.00;2.90;;;8.00;1.00;;;;;;5065547;27;20448;-75
2024/01/23 09:56:44;;;;;;;7.73;3.40;;;8.00;1.00;;;;;;5061589;28;21311;-74
2024/01/23 09:59:12;;;;;;;13.05;4.80;;;8.00;1.00;;;;;;5066771;27;20513;-75
2024/01/23 10:01:42;;;;;;;7.97;2.97;;;8.00;1.00;;;;;;5074540;28;20236;-75
2024/01/23 10:04:09;;;;;;;6.83;3.47;;;8.00;1.00;;;;;;5067510;28;20976;-75
2024/01/23 10:06:36;;;;;;;9.50;3.80;;;8.00;1.00;;;;;;5068442;28;20483;-75
2024/01/23 10:09:04;;;;;;;6.93;3.57;;;7.90;1.00;;;;;;5067944;28;20592;-75
2024/01/23 10:11:36;;;;;;;8.70;3.40;;;7.90;1.00;;;;;;5070679;27;20465;-77
2024/01/23 10:14:04;;;;;;;7.10;3.67;;;7.90;1.00;;;;;;5066413;27;20970;-75
2024/01/23 10:16:31;;;;;;;8.33;4.13;;;8.00;1.00;;;;;;5068965;27;20501;-74
2024/01/23 10:18:59;;;;;;;13.20;4.30;;;8.00;1.00;;;;;;5070282;28;21727;-76
2024/01/23 10:21:26;;;;;;;12.70;3.40;;;8.00;1.00;;;;;;5069860;28;20465;-75
2024/01/23 10:23:54;;;;;;;11.50;3.30;;;8.00;1.00;;;;;;5065975;27;20504;-74
2024/01/23 10:26:22;;;;;;;11.80;3.97;;;8.00;1.00;;;;;;5072074;28;20533;-74
2024/01/23 10:28:51;;;;;;;10.73;5.13;;;8.10;1.00;;;;;;5066636;28;20502;-76
2024/01/23 10:31:18;;;;;;;12.83;3.97;;;8.10;1.00;;;;;;5068626;28;20510;-75
2024/01/23 10:33:45;;;;;;;6.90;3.43;;;8.20;1.00;;;;;;5061231;28;20583;-74
2024/01/23 10:36:13;;;;;;;9.90;4.20;;;8.20;1.00;;;;;;5067246;27;20464;-74
2024/01/23 10:38:43;;;;;;;8.43;3.97;;;8.20;1.00;;;;;;5056015;28;20514;-74
2024/01/23 10:41:15;;;;;;;7.80;3.23;;;8.20;1.00;;;;;;5068919;28;20919;-74
2024/01/23 10:43:43;;;;;;;10.27;3.53;;;8.20;1.00;;;;;;5070346;28;20463;-75
2024/01/23 10:46:12;;;;;;;11.50;3.90;;;8.30;1.00;;;;;;5065710;28;21342;-75
2024/01/23 10:48:39;;;;;;;10.00;4.13;;;8.20;1.00;;;;;;5066885;28;20471;-74
2024/01/23 10:51:16;;;;;;;11.60;4.10;;;8.30;1.00;;;;;;5067012;28;20494;-71
2024/01/23 10:53:57;;;;;;;11.10;4.03;;;8.40;1.00;;;;;;5064614;27;20470;-76
2024/01/23 10:56:25;;;;;;;14.07;3.20;;;8.40;1.00;;;;;;5062572;27;21182;-77
2024/01/23 10:59:00;;;;;;;7.50;3.70;;;8.30;1.00;;;;;;5068843;27;20459;-75
2024/01/23 11:01:28;;;;;;;14.97;4.00;;;8.30;1.00;;;;;;5068578;28;21014;-75
2024/01/23 11:03:56;;;;;;;9.20;3.80;;;8.40;1.00;;;;;;5069474;28;20908;-77
2024/01/23 11:06:29;;;;;;;14.80;4.17;;;8.60;1.00;;;;;;5066593;28;20489;-78
2024/01/23 11:09:03;;;;;;;13.60;6.53;;;8.50;1.00;;;;;;5070948;28;20439;-77
2024/01/23 11:11:37;;;;;;;9.20;3.50;;;8.50;1.00;;;;;;5070343;28;20428;-76
2024/01/23 11:14:13;;;;;;;9.90;4.30;;;8.50;1.00;;;;;;5070142;28;20453;-76
2024/01/23 11:16:41;;;;;;;16.93;4.60;;;8.30;1.00;;;;;;5065877;28;20474;-77
2024/01/23 11:19:08;;;;;;;10.90;3.60;;;8.20;1.00;;;;;;5059024;28;21247;-74
2024/01/23 11:21:37;;;;;;;9.17;4.00;;;8.10;1.00;;;;;;5063055;28;20456;-74
2024/01/23 11:24:05;;;;;;;9.50;3.77;;;8.10;1.00;;;;;;5065364;27;20979;-74
2024/01/23 11:26:33;;;;;;;10.53;3.80;;;8.10;1.00;;;;;;5069332;28;20498;-74
2024/01/23 11:29:04;;;;;;;15.17;4.10;;;8.10;1.00;;;;;;5063570;28;20456;-73
2024/01/23 11:31:38;;;;;;;12.17;4.93;;;8.10;1.00;;;;;;5065952;28;20779;-74
2024/01/23 11:34:40;;;;;;;11.30;3.70;;;8.00;1.00;;;;;;5064187;28;21251;-74
2024/01/23 11:37:41;;;;;;;13.97;3.67;;;8.00;1.00;;;;;;5064930;28;20509;-73
2024/01/23 11:40:24;;;;;;;10.97;4.27;;;8.20;1.00;;;;;;5060039;27;20590;-72
2024/01/23 11:42:50;;;;;;;10.17;3.87;;;8.50;1.00;;;;;;5065072;28;21141;-74
2024/01/23 11:45:25;;;;;;;12.33;4.73;;;8.80;1.00;;;;;;5066403;28;20462;-73
2024/01/23 11:47:56;;;;;;;10.17;3.63;;;9.30;1.00;;;;;;5070584;28;20458;-75
2024/01/23 11:50:26;;;;;;;8.67;4.97;;;9.60;1.00;;;;;;5070348;28;20464;-74
2024/01/23 11:52:55;;;;;;;10.37;4.47;;;9.80;1.00;;;;;;5069331;28;20456;-71
2024/01/23 11:55:22;;;;;;;14.33;3.90;;;9.80;1.00;;;;;;5069895;28;21358;-72
2024/01/23 11:57:50;;;;;;;11.00;4.13;;;9.70;1.00;;;;;;5068600;28;20470;-73
2024/01/23 12:00:18;;;;;;;9.40;4.10;;;9.50;1.00;;;;;;5065560;28;20896;-71
2024/01/23 12:02:46;;;;;;;13.80;4.80;;;9.30;1.00;;;;;;5072600;28;21254;-73
2024/01/23 12:05:13;;;;;;;10.70;4.00;;;9.20;1.00;;;;;;5068851;28;20971;-74
2024/01/23 12:07:45;;;;;;;11.50;3.90;;;9.00;1.00;;;;;;5068251;27;20952;-74
2024/01/23 12:10:14;;;;;;;7.77;4.03;;;8.90;1.00;;;;;;5069383;27;20539;-73
2024/01/23 12:12:45;;;;;;;10.30;3.77;;;8.90;1.00;;;;;;5069940;28;20472;-73
2024/01/23 12:15:12;;;;;;;13.73;3.50;;;8.80;1.00;;;;;;5058598;28;20585;-73
2024/01/23 12:17:46;;;;;;;14.47;4.20;;;8.70;1.00;;;;;;5069662;28;20565;-73
2024/01/23 12:20:14;;;;;;;9.63;4.50;;;8.70;1.00;;;;;;5065147;27;20593;-73
2024/01/23 12:22:44;;;;;;;12.07;3.80;;;8.60;1.00;;;;;;5059937;28;20479;-73
2024/01/23 12:25:14;;;;;;;10.27;4.43;;;8.60;1.00;;;;;;5069061;28;20477;-73
2024/01/23 12:27:43;;;;;;;10.73;3.77;;;8.50;1.00;;;;;;5071959;27;20517;-72
2024/01/23 12:30:13;;;;;;;12.37;3.80;;;8.60;1.00;;;;;;5062587;28;20461;-72
2024/01/23 12:32:40;;;;;;;12.57;4.07;;;8.70;1.00;;;;;;5068008;28;20460;-72
2024/01/23 12:35:10;;;;;;;12.60;4.30;;;8.80;1.00;;;;;;5075758;28;20479;-72
2024/01/23 12:37:39;;;;;;;13.57;4.20;;;8.90;1.00;;;;;;5067040;28;21099;-73
2024/01/23 12:40:13;;;;;;;11.10;3.97;;;9.00;1.00;;;;;;5066103;28;20471;-74
2024/01/23 12:42:43;;;;;;;12.13;4.40;;;9.10;1.00;;;;;;5053472;28;20455;-73
2024/01/23 12:45:13;;;;;;;15.73;4.17;;;9.20;1.00;;;;;;5071893;27;20464;-73
2024/01/23 12:47:41;;;;;;;8.37;3.87;;;9.40;1.00;;;;;;5071851;27;20472;-74
2024/01/23 12:50:15;;;;;;;8.17;3.50;;;9.40;1.00;;;;;;5074433;27;21238;-78
2024/01/23 12:52:42;;;;;;;15.23;3.90;;;9.30;1.00;;;;;;5074614;28;20644;-76
2024/01/23 12:55:11;;;;;;;18.10;3.57;;;9.20;1.00;;;;;;5075423;28;20531;-77
2024/01/23 12:57:37;;;;;;;10.10;3.67;;;9.10;1.00;;;;;;5068057;28;20537;-75
2024/01/23 13:00:05;;;;;;;10.77;4.60;;;9.00;1.00;;;;;;5070557;27;20891;-77
2024/01/23 13:02:32;;;;;;;8.10;3.50;;;9.00;1.00;;;;;;5070168;28;21369;-75
2024/01/23 13:05:00;;;;;;;13.33;4.40;;;9.00;1.00;;;;;;5068591;28;20494;-76
2024/01/23 13:07:27;;;;;;;10.20;3.87;;;9.00;1.00;;;;;;5067011;27;20523;-76
2024/01/23 13:09:56;;;;;;;6.33;3.17;;;9.40;1.00;;;;;;5068706;27;20513;-79